Time;durP1;ratioP1;P1;durP2;ratioP2;P2;SDS_P1;SDS_P2;PMS_P1;PMS_P2;Temp;Humidity;BMP_temperature;BMP_pressure;BME280_temperature;BME280_humidity;BME280_pressure;Samples;Min_cycle;Max_cycle;Signal;HPM_P1;HPM_P2
2022/08/08 00:01:14;;;;;;;4.10;2.13;;;;;;;14.20;81.49;101830.38;5021736;28;20420;-80
2022/08/08 00:03:47;;;;;;;6.40;2.43;;;;;;;14.23;82.31;101827.88;5020947;28;20996;-80
2022/08/08 00:06:28;;;;;;;3.77;1.83;;;;;;;14.22;82.32;101830.91;5021805;28;20494;-80
2022/08/08 00:09:03;;;;;;;3.70;1.90;;;;;;;14.16;82.74;101835.59;5021970;28;20421;-80
2022/08/08 00:11:37;;;;;;;3.40;1.70;;;;;;;14.08;82.31;101825.38;5021829;28;20436;-80
2022/08/08 00:14:09;;;;;;;4.13;2.10;;;;;;;14.05;82.76;101831.41;5021365;28;20421;-80
2022/08/08 00:16:42;;;;;;;4.47;2.27;;;;;;;14.01;83.14;101833.09;5022100;28;20412;-80
2022/08/08 00:19:17;;;;;;;4.53;2.10;;;;;;;13.93;82.89;101831.03;5022211;28;20483;-80
2022/08/08 00:21:50;;;;;;;5.70;1.93;;;;;;;13.86;83.06;101832.19;5020799;28;20419;-80
2022/08/08 00:24:22;;;;;;;4.70;1.87;;;;;;;13.82;83.11;101835.81;5020438;28;20495;-80
2022/08/08 00:26:52;;;;;;;4.07;1.73;;;;;;;13.83;83.16;101832.78;5022005;28;20434;-80
2022/08/08 00:29:24;;;;;;;4.30;1.80;;;;;;;13.88;82.60;101838.16;5022644;28;20448;-80
2022/08/08 00:31:54;;;;;;;3.63;1.53;;;;;;;13.83;83.15;101830.06;5022335;28;20420;-81
2022/08/08 00:37:32;;;;;;;8.07;2.20;;;;;;;13.66;83.04;101840.63;5023241;28;20451;-80
2022/08/08 00:40:13;;;;;;;4.40;2.10;;;;;;;13.76;82.73;101836.94;5023437;28;20467;-80
2022/08/08 00:43:04;;;;;;;4.07;2.03;;;;;;;13.75;82.33;101836.16;5024421;28;20432;-80
2022/08/08 00:45:54;;;;;;;4.90;1.90;;;;;;;13.70;82.57;101843.56;5023877;28;20456;-80
2022/08/08 00:48:59;;;;;;;3.57;1.80;;;;;;;13.69;82.58;101831.88;5018959;28;20929;-80
2022/08/08 00:52:09;;;;;;;5.47;2.67;;;;;;;13.60;83.18;101831.72;5020741;28;20486;-80
2022/08/08 00:54:52;;;;;;;5.63;1.80;;;;;;;13.62;82.90;101834.94;5023634;28;20472;-80
2022/08/08 00:57:48;;;;;;;3.73;1.83;;;;;;;13.65;82.59;101833.56;5023369;28;20905;-80
2022/08/08 01:00:17;;;;;;;3.40;1.70;;;;;;;13.65;82.81;101833.56;5022914;28;20539;-80
2022/08/08 01:03:22;;;;;;;5.10;1.97;;;;;;;13.54;83.39;101840.22;5024031;28;20447;-80
2022/08/08 01:06:22;;;;;;;3.40;1.70;;;;;;;13.51;83.73;101836.16;5024382;28;20527;-80
2022/08/08 01:09:20;;;;;;;6.47;2.10;;;;;;;13.40;84.25;101833.84;5023088;28;20971;-80
2022/08/08 01:12:19;;;;;;;3.83;1.83;;;;;;;13.45;83.59;101833.78;5023216;28;20424;-80
2022/08/08 01:15:19;;;;;;;4.23;2.10;;;;;;;13.43;84.07;101831.34;5023371;28;20495;-80
2022/08/08 01:18:25;;;;;;;5.03;1.90;;;;;;;13.45;83.92;101828.34;5023486;28;20474;-80
2022/08/08 01:21:24;;;;;;;4.63;1.70;;;;;;;13.40;83.93;101831.13;5024059;28;20458;-80
2022/08/08 01:24:34;;;;;;;3.77;1.90;;;;;;;13.42;84.05;101837.91;5024990;28;20464;-81
2022/08/08 01:27:53;;;;;;;3.80;1.50;;;;;;;13.35;83.71;101835.50;5025333;28;20502;-81
2022/08/08 01:30:53;;;;;;;4.30;1.87;;;;;;;13.30;84.09;101835.56;5025589;28;20424;-81
2022/08/08 01:33:59;;;;;;;4.70;2.10;;;;;;;13.30;83.89;101829.31;5026202;28;20519;-80
2022/08/08 01:36:57;;;;;;;4.63;2.00;;;;;;;13.26;84.06;101834.53;5025754;28;20519;-80
2022/08/08 01:39:37;;;;;;;4.10;2.30;;;;;;;13.17;84.51;101828.06;5026498;28;20483;-80
2022/08/08 01:42:11;;;;;;;4.33;2.20;;;;;;;13.17;84.73;101828.06;5024840;28;20456;-80
2022/08/08 01:44:53;;;;;;;4.03;2.13;;;;;;;13.22;84.68;101829.91;5023568;28;20491;-81
2022/08/08 01:47:37;;;;;;;4.87;2.20;;;;;;;13.15;84.65;101822.13;5022636;28;20436;-81
2022/08/08 01:50:17;;;;;;;4.37;2.57;;;;;;;13.11;85.03;101821.06;5023503;28;20441;-81
2022/08/08 01:52:53;;;;;;;11.83;2.30;;;;;;;13.13;85.21;101816.13;5023611;28;20799;-81
2022/08/08 01:55:29;;;;;;;3.97;2.20;;;;;;;13.09;85.20;101815.88;5021671;28;20487;-80
2022/08/08 01:58:16;;;;;;;8.50;2.87;;;;;;;13.07;85.04;101811.84;5023128;28;20424;-80
2022/08/08 02:00:51;;;;;;;6.20;1.83;;;;;;;13.07;85.00;101809.13;5024365;28;20918;-80
2022/08/08 02:03:30;;;;;;;4.60;2.30;;;;;;;13.05;85.38;101816.75;5022673;28;20424;-80
2022/08/08 02:06:07;;;;;;;5.30;2.53;;;;;;;13.03;84.99;101816.25;5022840;28;20501;-80
2022/08/08 02:08:46;;;;;;;4.60;1.93;;;;;;;13.04;84.99;101813.22;5023822;28;20438;-79
2022/08/08 02:11:25;;;;;;;4.50;2.40;;;;;;;13.07;84.92;101803.69;5023339;28;20436;-80
2022/08/08 02:13:56;;;;;;;4.50;2.20;;;;;;;12.97;85.11;101807.34;5024526;28;20429;-80
2022/08/08 02:16:29;;;;;;;4.93;2.10;;;;;;;12.86;85.27;101812.03;5024184;28;20922;-80
2022/08/08 02:19:04;;;;;;;4.00;1.90;;;;;;;12.91;85.63;101813.91;5024058;28;20416;-80
2022/08/08 02:24:29;;;;;;;5.60;2.33;;;;;;;12.92;85.68;101817.44;5024750;28;20574;-80
2022/08/08 02:27:06;;;;;;;6.07;2.60;;;;;;;12.85;85.65;101810.44;5024373;28;20413;-80
2022/08/08 02:29:44;;;;;;;4.40;2.30;;;;;;;12.72;86.20;101815.72;5024693;28;20428;-80
2022/08/08 02:32:23;;;;;;;5.30;2.00;;;;;;;12.75;85.73;101821.41;5024367;28;20476;-79
2022/08/08 02:35:44;;;;;;;4.83;2.40;;;;;;;12.76;85.72;101811.34;5022094;28;20460;-80
2022/08/08 02:38:36;;;;;;;5.30;2.50;;;;;;;12.77;85.57;101826.53;5010996;28;20467;-80
2022/08/08 02:41:19;;;;;;;4.50;2.20;;;;;;;12.73;86.37;101823.56;5022417;28;20456;-80
2022/08/08 02:44:11;;;;;;;5.20;2.73;;;;;;;12.68;86.41;101826.34;5022510;28;20416;-80
2022/08/08 02:46:54;;;;;;;3.73;2.17;;;;;;;12.62;86.77;101824.78;5023288;28;20460;-80
2022/08/08 02:50:00;;;;;;;6.50;2.50;;;;;;;12.57;86.58;101819.34;5022945;28;20486;-80
2022/08/08 02:52:55;;;;;;;5.03;2.00;;;;;;;12.56;86.32;101823.16;5022373;28;20432;-80
2022/08/08 02:56:02;;;;;;;5.13;2.20;;;;;;;12.48;86.90;101819.13;5023062;28;20468;-79
2022/08/08 02:59:17;;;;;;;4.23;1.80;;;;;;;12.50;86.77;101825.13;5022816;28;20567;-80
2022/08/08 03:02:14;;;;;;;11.50;2.70;;;;;;;12.51;87.11;101820.50;5000305;28;20444;-81
2022/08/08 03:05:19;;;;;;;8.27;2.50;;;;;;;12.55;86.56;101821.56;4995340;28;20860;-80
2022/08/08 03:08:23;;;;;;;20.87;3.43;;;;;;;12.53;86.99;101824.56;5022989;28;20450;-80
2022/08/08 03:11:44;;;;;;;4.20;2.43;;;;;;;12.50;86.83;101832.47;5023076;28;20539;-80
2022/08/08 03:14:44;;;;;;;22.90;3.03;;;;;;;12.52;86.33;101833.78;5022727;28;20908;-80
2022/08/08 03:17:16;;;;;;;4.70;2.37;;;;;;;12.41;87.36;101834.16;5022970;28;20440;-81
2022/08/08 03:20:01;;;;;;;4.73;2.43;;;;;;;12.42;87.60;101830.34;5023597;28;20433;-81
2022/08/08 03:22:27;;;;;;;7.20;2.37;;;;;;;12.44;87.59;101830.84;5023138;28;20458;-81
2022/08/08 03:24:55;;;;;;;5.10;2.43;;;;;;;12.43;87.13;101829.25;5023476;28;20519;-81
2022/08/08 03:27:29;;;;;;;6.00;2.47;;;;;;;12.46;87.13;101828.69;5022605;28;20535;-80
2022/08/08 03:30:07;;;;;;;6.27;2.97;;;;;;;12.45;87.16;101827.06;5021036;28;20467;-80
2022/08/08 03:35:21;;;;;;;6.63;2.80;;;;;;;12.36;87.70;101830.38;5020073;28;20872;-80
2022/08/08 03:37:48;;;;;;;4.97;2.63;;;;;;;12.45;87.25;101830.59;5020379;28;20452;-80
2022/08/08 03:40:17;;;;;;;5.27;2.23;;;;;;;12.44;87.21;101823.53;5020904;28;20464;-81
2022/08/08 03:42:44;;;;;;;4.80;2.33;;;;;;;12.41;87.21;101828.72;5019988;28;20949;-80
2022/08/08 03:45:19;;;;;;;4.23;2.03;;;;;;;12.37;87.34;101831.19;5021052;28;20523;-80
2022/08/08 03:47:55;;;;;;;4.90;2.77;;;;;;;12.32;87.50;101832.03;5021249;28;20949;-82
2022/08/08 03:50:21;;;;;;;5.53;2.70;;;;;;;12.28;87.89;101838.31;5021919;28;20439;-80
2022/08/08 03:52:48;;;;;;;5.17;2.57;;;;;;;12.23;88.13;101843.78;5022072;28;20468;-80
2022/08/08 03:55:19;;;;;;;5.13;2.00;;;;;;;12.08;88.72;101840.03;5022223;28;20495;-81
2022/08/08 03:57:46;;;;;;;5.00;2.40;;;;;;;12.13;88.69;101841.94;5022085;28;20452;-80
2022/08/08 04:00:15;;;;;;;4.43;2.57;;;;;;;12.18;88.46;101844.63;5021531;28;20827;-81
2022/08/08 04:02:42;;;;;;;9.33;3.10;;;;;;;12.21;88.68;101848.69;5021657;28;20858;-81
2022/08/08 04:05:19;;;;;;;15.10;3.03;;;;;;;12.27;87.79;101845.66;5020882;28;20492;-81
2022/08/08 04:07:45;;;;;;;7.63;3.10;;;;;;;12.28;88.30;101850.00;5021004;28;20535;-81
2022/08/08 04:10:12;;;;;;;5.57;3.10;;;;;;;12.30;88.46;101846.97;5020448;28;20812;-81
2022/08/08 04:12:40;;;;;;;4.40;2.10;;;;;;;12.30;88.38;101850.50;5021526;28;20471;-80
2022/08/08 04:15:08;;;;;;;5.73;2.80;;;;;;;12.35;87.99;101852.38;5022158;28;20499;-81
2022/08/08 04:17:35;;;;;;;4.60;2.73;;;;;;;12.41;88.07;101850.47;5022852;28;21008;-81
2022/08/08 04:20:02;;;;;;;9.07;3.50;;;;;;;12.26;88.54;101857.63;5024320;28;20475;-80
2022/08/08 04:22:29;;;;;;;5.17;2.80;;;;;;;12.29;88.76;101857.03;5021276;28;20486;-80
2022/08/08 04:24:55;;;;;;;4.27;2.07;;;;;;;12.31;88.95;101862.22;5020201;28;20551;-80
2022/08/08 04:27:23;;;;;;;5.53;2.40;;;;;;;12.25;89.79;101858.69;5026884;28;20444;-80
2022/08/08 04:29:51;;;;;;;7.20;3.03;;;;;;;12.27;90.10;101853.81;5026774;28;20444;-80
2022/08/08 04:32:18;;;;;;;6.70;3.53;;;;;;;12.53;89.49;101861.81;5027765;28;20451;-80
2022/08/08 04:34:45;;;;;;;7.70;3.50;;;;;;;12.69;89.70;101860.56;5027454;28;20993;-80
2022/08/08 04:37:12;;;;;;;5.63;2.73;;;;;;;12.65;89.78;101862.25;5027519;28;20454;-80
2022/08/08 04:39:39;;;;;;;7.40;3.00;;;;;;;12.68;89.17;101869.03;5028204;28;20447;-80
2022/08/08 04:42:07;;;;;;;4.90;2.77;;;;;;;12.68;89.26;101869.84;5028183;28;20786;-80
2022/08/08 04:44:34;;;;;;;6.50;2.60;;;;;;;12.68;88.98;101871.75;5030233;28;20515;-80
2022/08/08 04:47:02;;;;;;;4.40;2.23;;;;;;;12.75;88.95;101873.06;5034495;28;20500;-81
2022/08/08 04:49:29;;;;;;;6.20;3.10;;;;;;;12.79;89.04;101884.16;5027714;28;20443;-80
2022/08/08 04:51:56;;;;;;;3.93;2.00;;;;;;;12.77;89.13;101878.19;5026551;28;20502;-81
2022/08/08 04:54:22;;;;;;;4.27;2.33;;;;;;;12.83;89.45;101888.72;5026836;28;20506;-81
2022/08/08 04:56:49;;;;;;;7.40;2.27;;;;;;;12.87;89.28;101889.78;5026910;28;20455;-81
2022/08/08 04:59:16;;;;;;;5.60;2.50;;;;;;;12.95;90.07;101885.66;5026930;28;20942;-81
2022/08/08 05:01:42;;;;;;;5.87;2.40;;;;;;;12.97;90.45;101885.38;5027400;28;20440;-80
2022/08/08 05:04:10;;;;;;;7.67;3.07;;;;;;;13.04;90.35;101883.94;5027396;28;20448;-81
2022/08/08 05:06:37;;;;;;;8.33;3.20;;;;;;;13.12;90.28;101885.25;5027671;28;20541;-81
2022/08/08 05:09:04;;;;;;;8.50;2.40;;;;;;;13.25;89.97;101883.81;5027951;28;20447;-81
2022/08/08 05:11:31;;;;;;;6.67;3.07;;;;;;;13.42;89.37;101886.09;5028575;28;20447;-81
2022/08/08 05:13:58;;;;;;;6.43;2.80;;;;;;;13.61;88.20;101881.53;5028051;28;20444;-81
2022/08/08 05:16:25;;;;;;;9.43;3.17;;;;;;;13.72;88.05;101888.47;5025875;28;20498;-81
2022/08/08 05:18:52;;;;;;;5.53;2.50;;;;;;;13.88;88.55;101889.91;5025291;28;20933;-81
2022/08/08 05:21:20;;;;;;;4.03;2.30;;;;;;;13.99;89.07;101892.50;5025451;28;20440;-80
2022/08/08 05:23:47;;;;;;;4.80;2.20;;;;;;;14.06;89.74;101892.97;5025483;28;20452;-81
2022/08/08 05:26:14;;;;;;;5.03;2.50;;;;;;;14.16;90.02;101892.00;5026016;28;20557;-81
2022/08/08 05:28:41;;;;;;;7.70;3.13;;;;;;;14.23;89.88;101887.03;5026019;28;20498;-81
2022/08/08 05:31:10;;;;;;;5.80;3.00;;;;;;;14.32;90.76;101894.25;5026613;28;20547;-81
2022/08/08 05:33:37;;;;;;;5.30;2.87;;;;;;;14.42;91.00;101895.19;5026972;28;20440;-81
2022/08/08 05:36:05;;;;;;;5.63;2.70;;;;;;;14.52;91.25;101889.63;5026053;28;20519;-81
2022/08/08 05:38:36;;;;;;;4.80;2.40;;;;;;;14.62;91.31;101894.94;5023253;28;20448;-81
2022/08/08 05:41:04;;;;;;;9.00;2.50;;;;;;;14.72;90.77;101893.97;5023029;28;20460;-81
2022/08/08 05:43:33;;;;;;;4.70;2.33;;;;;;;14.84;90.09;101889.69;5023695;28;20448;-80
2022/08/08 05:46:01;;;;;;;6.50;2.70;;;;;;;14.96;89.81;101900.13;5025576;28;20921;-81
2022/08/08 05:48:28;;;;;;;7.10;3.10;;;;;;;15.07;89.52;101896.13;5026830;28;20447;-81
2022/08/08 05:50:55;;;;;;;6.80;3.27;;;;;;;15.20;88.93;101889.06;5023143;28;20444;-82
2022/08/08 05:53:25;;;;;;;6.80;3.00;;;;;;;15.29;88.92;101900.91;5024192;28;20444;-81
2022/08/08 05:55:55;;;;;;;5.77;2.70;;;;;;;15.44;87.90;101894.38;5024979;28;20464;-81
2022/08/08 05:58:27;;;;;;;6.93;3.07;;;;;;;15.64;87.75;101904.94;5024495;28;20479;-80
2022/08/08 06:00:55;;;;;;;5.37;2.43;;;;;;;15.75;86.86;101908.28;5025804;28;20432;-82
2022/08/08 06:03:23;;;;;;;5.17;2.87;;;;;;;15.87;86.43;101905.03;5027194;28;20448;-81
2022/08/08 06:05:51;;;;;;;5.47;2.33;;;;;;;15.96;85.42;101914.16;5024145;28;20587;-82
2022/08/08 06:08:24;;;;;;;9.03;2.83;;;;;;;16.09;84.58;101899.66;5021372;28;20451;-81
2022/08/08 06:10:53;;;;;;;4.70;2.37;;;;;;;16.22;83.82;101911.69;5022450;28;20455;-80
2022/08/08 06:13:20;;;;;;;4.60;2.40;;;;;;;16.32;83.46;101914.19;5021860;28;20863;-80
2022/08/08 06:15:49;;;;;;;4.20;2.00;;;;;;;16.42;82.64;101904.16;5021278;28;20609;-81
2022/08/08 06:18:17;;;;;;;3.90;2.10;;;;;;;16.53;82.49;101908.28;5021345;28;20455;-81
2022/08/08 06:20:45;;;;;;;4.57;1.90;;;;;;;16.64;81.79;101912.38;5021520;28;20479;-80
2022/08/08 06:23:12;;;;;;;3.63;1.77;;;;;;;16.74;81.53;101911.41;5021710;28;20448;-80
2022/08/08 06:25:42;;;;;;;6.10;2.23;;;;;;;16.85;81.47;101910.81;5021332;28;20480;-80
2022/08/08 06:28:15;;;;;;;5.23;2.47;;;;;;;16.97;81.32;101915.75;5021058;28;20468;-80
2022/08/08 06:30:43;;;;;;;5.17;2.17;;;;;;;17.08;81.14;101922.56;5019849;28;20429;-81
2022/08/08 06:33:12;;;;;;;5.57;2.57;;;;;;;17.16;80.68;101915.53;5019471;28;20976;-80
2022/08/08 06:35:45;;;;;;;4.10;1.97;;;;;;;17.28;79.05;101918.50;5020468;28;20491;-82
2022/08/08 06:38:17;;;;;;;3.90;1.67;;;;;;;17.42;77.54;101921.16;5019381;28;20440;-81
2022/08/08 06:40:44;;;;;;;3.83;1.90;;;;;;;17.53;77.26;101927.16;5021614;28;20593;-81
2022/08/08 06:43:18;;;;;;;6.70;2.00;;;;;;;17.60;76.32;101930.28;5022600;28;20478;-81
2022/08/08 06:45:45;;;;;;;4.00;2.17;;;;;;;17.76;74.81;101928.78;5022844;28;20511;-81
2022/08/08 06:48:11;;;;;;;7.60;2.03;;;;;;;17.93;73.13;101927.19;5023415;28;20452;-80
2022/08/08 06:50:38;;;;;;;9.33;2.37;;;;;;;18.03;71.70;101929.66;5018631;28;20444;-81
2022/08/08 06:53:07;;;;;;;3.17;1.47;;;;;;;18.13;71.12;101938.38;5019476;28;20471;-81
2022/08/08 06:55:35;;;;;;;4.30;2.00;;;;;;;18.25;70.37;101928.75;5018805;28;20984;-81
2022/08/08 06:58:02;;;;;;;4.07;2.10;;;;;;;18.36;70.43;101932.78;5019010;28;20456;-81
2022/08/08 07:00:34;;;;;;;14.03;2.90;;;;;;;18.47;68.95;101931.34;5019033;28;21032;-81
2022/08/08 07:03:05;;;;;;;20.27;2.70;;;;;;;18.59;68.01;101934.28;5019669;28;20823;-81
2022/08/08 07:05:34;;;;;;;5.13;1.87;;;;;;;18.72;70.88;101927.03;5019826;28;20912;-81
2022/08/08 07:08:08;;;;;;;6.17;2.33;;;;;;;18.81;70.43;101932.50;5020238;28;20444;-81
2022/08/08 07:10:38;;;;;;;6.93;1.90;;;;;;;18.83;67.10;101939.31;5019842;28;20419;-81
2022/08/08 07:13:08;;;;;;;3.23;1.47;;;;;;;19.00;66.74;101934.94;5020158;28;20490;-81
2022/08/08 07:15:44;;;;;;;4.60;1.53;;;;;;;19.08;67.97;101945.91;5019380;28;20472;-82
2022/08/08 07:18:11;;;;;;;4.77;2.10;;;;;;;19.18;67.21;101941.22;5020014;28;20519;-81
2022/08/08 07:20:39;;;;;;;6.87;2.60;;;;;;;19.27;65.55;101945.56;5018909;28;20441;-81
2022/08/08 07:23:14;;;;;;;5.47;2.17;;;;;;;19.38;67.11;101954.25;5019983;28;20444;-81
2022/08/08 07:25:44;;;;;;;4.00;2.03;;;;;;;19.48;64.41;101937.44;5019275;28;20487;-82
2022/08/08 07:28:12;;;;;;;3.23;1.43;;;;;;;19.63;61.17;101944.34;5019456;28;20452;-81
2022/08/08 07:30:40;;;;;;;4.63;2.00;;;;;;;19.79;63.84;101941.84;5019621;28;20475;-82
2022/08/08 07:33:10;;;;;;;3.30;1.50;;;;;;;19.91;60.95;101941.94;5019829;28;20433;-82
2022/08/08 07:35:38;;;;;;;4.30;1.83;;;;;;;19.99;62.71;101948.56;5019089;28;20468;-81
2022/08/08 07:38:06;;;;;;;4.40;1.80;;;;;;;20.08;62.02;101955.63;5018900;28;20971;-82
2022/08/08 07:40:33;;;;;;;4.93;2.20;;;;;;;20.12;57.60;101950.25;5018191;28;20471;-82
2022/08/08 07:43:02;;;;;;;4.90;2.60;;;;;;;20.25;55.82;101949.22;5017945;28;21040;-82
2022/08/08 07:45:29;;;;;;;4.20;1.70;;;;;;;20.44;56.64;101958.97;5019748;28;20480;-81
2022/08/08 07:47:57;;;;;;;8.30;2.60;;;;;;;20.49;56.63;101956.84;5020109;28;20440;-81
2022/08/08 07:50:24;;;;;;;6.50;1.93;;;;;;;20.60;55.10;101955.31;5019399;28;20487;-81
2022/08/08 07:52:56;;;;;;;6.30;2.70;;;;;;;20.76;55.66;101968.47;5020434;28;20440;-81
2022/08/08 07:55:25;;;;;;;7.23;3.20;;;;;;;20.84;55.64;101959.34;5023333;28;20448;-82
2022/08/08 07:58:01;;;;;;;5.97;2.33;;;;;;;20.98;56.19;101962.59;5019467;28;20439;-81
2022/08/08 08:00:40;;;;;;;6.73;3.70;;;;;;;21.05;59.25;101973.09;5018406;28;20435;-81
2022/08/08 08:03:11;;;;;;;5.20;2.43;;;;;;;21.12;58.57;101970.59;5021750;28;20921;-82
2022/08/08 08:05:41;;;;;;;6.20;2.57;;;;;;;21.12;58.76;101976.91;5021495;28;20560;-79
2022/08/08 08:08:16;;;;;;;7.83;2.50;;;;;;;21.21;55.31;101974.06;5020045;28;20432;-79
2022/08/08 08:10:45;;;;;;;5.30;2.03;;;;;;;21.26;57.15;101971.09;5019920;28;20482;-81
2022/08/08 08:13:21;;;;;;;7.77;1.80;;;;;;;21.31;58.55;101973.66;5019437;28;20496;-81
2022/08/08 08:15:53;;;;;;;6.27;2.13;;;;;;;21.33;57.05;101976.06;5023191;28;20451;-82
2022/08/08 08:18:22;;;;;;;4.03;2.17;;;;;;;21.36;56.79;101967.94;5021732;28;20946;-81
2022/08/08 08:20:52;;;;;;;4.53;1.80;;;;;;;21.48;56.17;101963.63;5019765;28;20459;-82
2022/08/08 08:23:18;;;;;;;4.30;1.83;;;;;;;21.55;54.51;101972.09;5018880;28;20464;-81
2022/08/08 08:25:45;;;;;;;7.03;2.37;;;;;;;21.59;50.66;101962.00;5020172;28;20487;-81
2022/08/08 08:28:12;;;;;;;6.10;2.80;;;;;;;21.75;52.20;101971.22;5017469;28;20946;-81
2022/08/08 08:30:39;;;;;;;4.80;2.50;;;;;;;21.91;53.58;101965.81;5017687;28;20448;-80
2022/08/08 08:33:05;;;;;;;5.07;2.43;;;;;;;21.91;50.35;101965.81;5016635;28;20475;-80
2022/08/08 08:35:33;;;;;;;7.47;2.47;;;;;;;22.09;50.04;101969.16;5016075;28;20479;-79
2022/08/08 08:38:00;;;;;;;5.20;2.53;;;;;;;22.18;51.86;101972.66;5019407;28;20448;-80
2022/08/08 08:40:29;;;;;;;5.90;2.70;;;;;;;22.30;50.85;101969.06;5017984;28;20460;-79
2022/08/08 08:42:56;;;;;;;5.40;1.50;;;;;;;22.31;49.33;101973.44;5020693;28;20467;-82
2022/08/08 08:45:24;;;;;;;5.03;1.80;;;;;;;22.42;48.40;101980.91;5025588;28;20504;-83
2022/08/08 08:47:52;;;;;;;6.43;1.83;;;;;;;22.52;49.05;101978.81;5021716;28;20972;-82
2022/08/08 08:50:19;;;;;;;4.27;2.03;;;;;;;22.58;48.19;101980.19;5025117;28;20510;-82
2022/08/08 08:52:48;;;;;;;3.30;1.03;;;;;;;22.68;48.67;101985.22;5022793;28;20451;-82
2022/08/08 08:55:17;;;;;;;2.73;1.23;;;;;;;22.75;47.34;101974.38;5021506;28;20826;-83
2022/08/08 08:57:44;;;;;;;3.27;1.03;;;;;;;22.84;48.11;101975.06;5024795;28;20479;-82
2022/08/08 09:00:12;;;;;;;2.60;1.10;;;;;;;22.93;47.49;101969.38;5025494;28;20455;-82
2022/08/08 09:02:42;;;;;;;3.50;1.47;;;;;;;22.96;47.38;101976.19;5024086;28;20436;-81
2022/08/08 09:05:09;;;;;;;2.70;0.90;;;;;;;23.00;44.96;101974.31;5022745;28;20529;-82
2022/08/08 09:07:38;;;;;;;3.33;1.17;;;;;;;23.07;44.70;101978.09;5023218;28;20495;-82
2022/08/08 09:10:07;;;;;;;2.87;1.10;;;;;;;23.12;45.66;101977.03;5024840;28;20425;-82
2022/08/08 09:12:35;;;;;;;3.70;1.17;;;;;;;23.15;44.11;101979.91;5024975;28;20514;-83
2022/08/08 09:15:02;;;;;;;2.50;0.90;;;;;;;23.33;42.97;101974.03;5022297;28;20504;-82
2022/08/08 09:17:29;;;;;;;4.40;1.63;;;;;;;23.42;41.09;101981.03;5022295;28;20484;-79
2022/08/08 09:19:58;;;;;;;2.73;1.17;;;;;;;23.53;41.90;101974.97;5023538;28;20448;-82
2022/08/08 09:22:26;;;;;;;3.30;1.20;;;;;;;23.64;43.51;101976.03;5025791;28;20456;-82
2022/08/08 09:24:54;;;;;;;2.73;0.90;;;;;;;23.68;44.05;101968.66;5019731;28;21009;-81
2022/08/08 09:27:22;;;;;;;5.57;1.40;;;;;;;23.70;42.92;101974.66;5020067;28;20515;-81
2022/08/08 09:29:52;;;;;;;4.07;1.30;;;;;;;23.77;43.50;101968.47;5020468;28;20495;-83
2022/08/08 09:32:35;;;;;;;3.10;1.10;;;;;;;23.72;45.80;101966.78;5022917;28;20897;-81
2022/08/08 09:35:07;;;;;;;6.00;1.40;;;;;;;23.73;44.67;101959.28;5022244;28;20467;-80
2022/08/08 09:37:43;;;;;;;3.73;1.20;;;;;;;23.91;41.83;101966.09;5021058;28;20482;-82
2022/08/08 09:40:11;;;;;;;3.37;1.07;;;;;;;24.09;42.10;101959.00;5022539;28;20554;-82
2022/08/08 09:42:42;;;;;;;2.93;1.00;;;;;;;24.22;42.99;101961.66;5021153;28;20934;-81
2022/08/08 09:45:10;;;;;;;2.93;1.23;;;;;;;24.32;41.16;101961.91;5038430;22;20515;-69
2022/08/08 09:47:38;;;;;;;4.40;1.13;;;;;;;24.35;41.61;101963.97;5035731;28;20473;-69
2022/08/08 09:50:08;;;;;;;4.10;1.13;;;;;;;24.42;42.95;101958.59;5035898;28;20891;-69
2022/08/08 09:52:36;;;;;;;2.30;0.80;;;;;;;24.37;44.23;101958.88;5035815;28;20459;-69
2022/08/08 09:55:03;;;;;;;5.20;1.40;;;;;;;24.51;43.67;101957.59;5036197;28;20482;-70
2022/08/08 09:57:33;;;;;;;3.10;1.10;;;;;;;24.64;43.51;101961.81;5036194;28;20820;-69
2022/08/08 10:00:02;;;;;;;2.90;1.00;;;;;;;24.74;41.15;101950.16;5035768;28;20443;-69
2022/08/08 10:02:35;;;;;;;3.87;1.37;;;;;;;24.78;40.55;101953.78;5035450;28;20474;-70
2022/08/08 10:05:08;;;;;;;2.60;1.07;;;;;;;24.95;41.30;101955.31;5036306;28;20453;-71
2022/08/08 10:07:35;;;;;;;2.50;1.00;;;;;;;25.09;41.69;101949.28;5036075;28;20470;-69
2022/08/08 10:10:05;;;;;;;3.37;1.60;;;;;;;25.23;42.46;101943.19;5035681;28;20484;-70
2022/08/08 10:12:35;;;;;;;7.43;1.97;;;;;;;25.16;39.46;101947.44;5035347;28;20537;-70
2022/08/08 10:15:05;;;;;;;4.37;1.27;;;;;;;25.24;39.51;101951.16;5035078;28;20891;-68
2022/08/08 10:17:32;;;;;;;4.00;1.70;;;;;;;25.25;42.42;101951.97;5035288;28;20443;-70
2022/08/08 10:20:01;;;;;;;7.33;2.80;;;;;;;25.36;42.34;101956.53;5035268;28;20450;-71
2022/08/08 10:22:29;;;;;;;4.60;1.93;;;;;;;25.33;41.53;101950.94;5035135;28;20466;-70
2022/08/08 10:25:02;;;;;;;5.77;1.90;;;;;;;25.49;38.97;101962.69;5034705;28;20443;-69
2022/08/08 10:27:38;;;;;;;3.13;1.27;;;;;;;25.58;36.53;101954.94;5034955;28;20992;-70
2022/08/08 10:30:08;;;;;;;3.23;1.10;;;;;;;25.54;37.93;101950.47;5035256;28;20431;-70
2022/08/08 10:32:40;;;;;;;2.73;1.07;;;;;;;25.46;37.58;101946.81;5034768;28;21056;-69
2022/08/08 10:35:11;;;;;;;3.40;1.30;;;;;;;25.43;36.79;101947.53;5035251;28;20435;-70
2022/08/08 10:37:42;;;;;;;5.23;1.10;;;;;;;25.39;36.69;101952.22;5035081;28;20484;-69
2022/08/08 10:40:14;;;;;;;3.40;1.50;;;;;;;25.39;38.94;101947.47;5035125;28;20526;-69
2022/08/08 10:42:41;;;;;;;5.20;1.37;;;;;;;25.21;39.40;101945.56;5035012;28;20463;-69
2022/08/08 10:45:11;;;;;;;3.23;1.37;;;;;;;25.44;39.41;101935.25;5034479;28;21016;-71
2022/08/08 10:47:39;;;;;;;3.53;1.50;;;;;;;25.77;38.46;101940.22;5034871;28;20467;-69
2022/08/08 10:50:08;;;;;;;3.13;1.10;;;;;;;25.99;37.15;101938.56;5034814;28;20439;-70
2022/08/08 10:52:38;;;;;;;3.27;1.10;;;;;;;26.08;37.16;101943.88;5034621;28;20506;-70
2022/08/08 10:55:06;;;;;;;2.93;1.27;;;;;;;26.25;36.28;101948.06;5034631;28;20493;-71
2022/08/08 10:57:38;;;;;;;3.97;1.30;;;;;;;26.39;36.47;101943.50;5034621;28;20531;-70
2022/08/08 11:00:07;;;;;;;6.70;1.63;;;;;;;26.42;35.23;101939.16;5034598;28;20454;-70
2022/08/08 11:02:35;;;;;;;5.30;1.80;;;;;;;26.41;35.94;101929.22;5034761;28;20555;-71
2022/08/08 11:05:06;;;;;;;2.90;1.00;;;;;;;26.55;37.04;101932.22;5034525;28;20622;-71
2022/08/08 11:07:34;;;;;;;5.37;1.20;;;;;;;26.72;37.15;101938.38;5034446;28;20471;-71
2022/08/08 11:10:01;;;;;;;4.23;1.50;;;;;;;26.74;36.27;101936.84;5034119;28;21013;-70
2022/08/08 11:12:28;;;;;;;3.80;1.47;;;;;;;26.61;36.26;101941.03;5034353;28;20856;-75
2022/08/08 11:14:58;;;;;;;2.87;1.33;;;;;;;26.33;37.46;101938.66;5034624;28;20526;-74
2022/08/08 11:17:27;;;;;;;2.60;1.00;;;;;;;25.96;35.91;101935.75;5034377;28;20435;-73
2022/08/08 11:19:56;;;;;;;2.90;1.20;;;;;;;25.94;39.25;101940.84;5034333;28;20869;-71
2022/08/08 11:22:25;;;;;;;4.03;1.67;;;;;;;25.76;38.73;101935.00;5034021;28;20463;-71
2022/08/08 11:24:54;;;;;;;3.73;1.53;;;;;;;25.54;36.86;101936.59;5034230;28;20450;-70
2022/08/08 11:27:24;;;;;;;2.70;1.17;;;;;;;25.47;36.33;101933.72;5034092;28;20485;-70
2022/08/08 11:29:57;;;;;;;3.37;1.43;;;;;;;25.42;38.78;101932.88;5034081;28;20789;-70
2022/08/08 11:32:26;;;;;;;2.77;0.97;;;;;;;25.33;37.46;101937.06;5033967;28;20471;-70
2022/08/08 11:35:02;;;;;;;3.23;1.30;;;;;;;25.86;37.62;101935.22;5033664;28;20462;-70
2022/08/08 11:37:30;;;;;;;4.37;1.27;;;;;;;27.02;35.14;101932.78;5033660;28;20469;-70
2022/08/08 11:39:59;;;;;;;2.50;1.00;;;;;;;28.40;36.38;101935.91;5033854;28;20451;-71
2022/08/08 11:42:27;;;;;;;2.50;1.03;;;;;;;29.52;36.93;101934.22;5033712;28;20550;-71
2022/08/08 11:44:54;;;;;;;2.70;1.17;;;;;;;30.34;32.39;101946.13;5033801;28;20538;-71
2022/08/08 11:47:22;;;;;;;3.47;1.40;;;;;;;31.00;32.39;101933.47;5033382;28;20863;-71
2022/08/08 11:49:51;;;;;;;3.47;1.13;;;;;;;31.78;32.81;101938.47;5033758;28;20451;-71
2022/08/08 11:52:19;;;;;;;2.30;0.70;;;;;;;32.39;31.65;101943.50;5033274;28;20503;-72
2022/08/08 11:54:46;;;;;;;2.50;1.00;;;;;;;32.88;30.54;101942.03;5033602;28;20525;-72
2022/08/08 11:57:20;;;;;;;2.97;0.93;;;;;;;33.46;29.26;101942.00;5033782;28;20450;-71
2022/08/08 11:59:52;;;;;;;2.80;1.17;;;;;;;33.85;29.71;101940.53;5033749;28;20859;-71
2022/08/08 12:02:19;;;;;;;3.00;1.10;;;;;;;33.71;27.13;101940.78;5033205;28;21004;-72